< < Back
Terminal Aerodrome Forecast


Current Version              Previous Versions:   1  2  3  4  5  6  7  8  9  

Terminal Aerodrome Forecast

289
FTUS42 KMLB 281100
TAFDAB
TAF
KDAB 281125Z 2812/2912 00000KT P6SM FEW100
     FM281500 08007KT P6SM SCT040 SCT060
     FM290300 14002KT P6SM FEW040=

Latest METAR

536
SAUS80 KWBC 291200
MTRDAB
METAR KDAB 291153Z 00000KT 10SM FEW023 FEW050 SCT140 25/23 A3006 RMK AO2
SLP178 T02500233 10261 20244 53016


USA.gov is the U.S. government's official web portal to all federal, state and local government web resources and services.